Time;durP1;ratioP1;P1;durP2;ratioP2;P2;SDS_P1;SDS_P2;PMS_P1;PMS_P2;Temp;Humidity;BMP_temperature;BMP_pressure;BME280_temperature;BME280_humidity;BME280_pressure;Samples;Min_cycle;Max_cycle;Signal;HPM_P1;HPM_P2
2022/11/19 00:01:11;;;;;;;74.15;31.77;;;0.90;99.90;;;;;;4998547;28;20053;-67
2022/11/19 00:03:38;;;;;;;72.13;32.78;;;0.90;99.90;;;;;;5001793;28;20022;-66
2022/11/19 00:06:10;;;;;;;74.32;31.67;;;0.90;99.90;;;;;;5005493;28;20371;-66
2022/11/19 00:08:36;;;;;;;68.72;31.80;;;0.90;99.90;;;;;;4989305;28;20030;-66
2022/11/19 00:11:04;;;;;;;68.03;29.98;;;0.90;99.90;;;;;;4992289;28;20092;-65
2022/11/19 00:13:30;;;;;;;71.57;29.98;;;0.90;99.90;;;;;;5002300;28;20045;-66
2022/11/19 00:16:01;;;;;;;74.93;32.05;;;0.90;99.90;;;;;;4984129;28;20382;-66
2022/11/19 00:18:27;;;;;;;60.13;28.30;;;0.90;99.90;;;;;;5001992;28;20045;-66
2022/11/19 00:20:54;;;;;;;66.43;28.83;;;0.90;99.90;;;;;;5001811;28;20165;-66
2022/11/19 00:23:20;;;;;;;70.45;29.42;;;0.90;99.90;;;;;;5005366;28;20022;-65
2022/11/19 00:25:45;;;;;;;65.65;28.42;;;0.80;99.90;;;;;;4997266;28;20049;-66
2022/11/19 00:28:11;;;;;;;63.88;29.45;;;0.90;99.90;;;;;;5001468;28;20029;-66
2022/11/19 00:30:36;;;;;;;59.75;28.23;;;0.90;99.90;;;;;;5001164;28;20030;-65
2022/11/19 00:33:02;;;;;;;62.90;28.50;;;0.90;99.90;;;;;;5002402;28;20030;-65
2022/11/19 00:35:28;;;;;;;63.22;28.98;;;0.90;99.90;;;;;;4997706;28;20074;-66
2022/11/19 00:37:53;;;;;;;57.67;26.80;;;0.90;99.90;;;;;;4998458;28;20062;-65
2022/11/19 00:40:19;;;;;;;69.43;29.85;;;0.90;99.90;;;;;;5012542;28;20018;-66
2022/11/19 00:43:45;;;;;;;61.83;29.10;;;0.90;99.90;;;;;;4999928;28;20070;-65
2022/11/19 00:45:30;;;;;;;58.53;27.10;;;0.90;99.90;;;;;;4994203;28;20039;-65
2022/11/19 00:47:55;;;;;;;63.97;28.45;;;0.90;99.90;;;;;;4996207;28;20035;-66
2022/11/19 00:50:21;;;;;;;58.80;27.75;;;0.90;99.90;;;;;;4997698;28;20503;-66
2022/11/19 00:52:47;;;;;;;60.58;27.08;;;0.90;99.90;;;;;;4996068;28;20042;-65
2022/11/19 00:55:12;;;;;;;58.90;27.45;;;0.90;99.90;;;;;;4995042;28;20081;-65
2022/11/19 00:57:38;;;;;;;56.50;26.50;;;0.90;99.90;;;;;;4999591;28;20984;-66
2022/11/19 01:00:04;;;;;;;58.17;26.17;;;0.90;99.90;;;;;;5001100;28;20026;-66
2022/11/19 01:02:29;;;;;;;56.40;26.38;;;0.90;99.90;;;;;;4998817;28;20122;-66
2022/11/19 01:04:55;;;;;;;55.38;27.08;;;0.90;99.90;;;;;;5001292;28;20097;-66
2022/11/19 01:07:20;;;;;;;64.47;27.63;;;0.90;99.90;;;;;;5002139;28;20056;-66
2022/11/19 01:09:46;;;;;;;54.72;25.80;;;0.90;99.90;;;;;;4997298;28;20393;-65
2022/11/19 01:12:12;;;;;;;56.25;25.77;;;0.90;99.90;;;;;;4998058;28;20026;-66
2022/11/19 01:14:38;;;;;;;56.50;26.67;;;0.90;99.90;;;;;;5013430;28;20166;-67
2022/11/19 01:17:03;;;;;;;60.70;27.65;;;0.90;99.90;;;;;;4999282;28;20114;-67
2022/11/19 01:19:29;;;;;;;66.57;29.75;;;0.90;99.90;;;;;;5000427;28;20493;-66
2022/11/19 01:21:54;;;;;;;70.60;27.60;;;0.90;99.90;;;;;;4997367;28;20037;-66
2022/11/19 01:24:20;;;;;;;54.92;26.42;;;0.90;99.90;;;;;;4997056;28;20435;-66
2022/11/19 01:26:45;;;;;;;64.00;26.92;;;0.80;99.90;;;;;;4996669;28;20167;-65
2022/11/19 01:29:11;;;;;;;62.28;25.13;;;0.80;99.90;;;;;;4995700;28;20026;-65
2022/11/19 01:31:37;;;;;;;63.78;28.10;;;0.80;99.90;;;;;;4995209;28;20490;-65
2022/11/19 01:34:03;;;;;;;58.90;26.15;;;0.90;99.90;;;;;;4996147;28;20018;-66
2022/11/19 01:36:29;;;;;;;60.88;26.25;;;0.90;99.90;;;;;;4997612;28;20494;-67
2022/11/19 01:38:56;;;;;;;55.00;26.95;;;0.90;99.90;;;;;;4995313;28;20493;-66
2022/11/19 01:41:24;;;;;;;56.85;26.45;;;0.90;99.90;;;;;;4994857;28;20037;-65
2022/11/19 01:43:51;;;;;;;57.78;24.75;;;0.90;99.90;;;;;;4997577;28;20034;-65
2022/11/19 01:46:23;;;;;;;56.30;26.27;;;0.80;99.90;;;;;;5000353;28;20037;-65
2022/11/19 01:48:51;;;;;;;;;;;0.80;99.90;;;;;;4999180;28;20028;-66
2022/11/19 01:51:27;;;;;;;55.65;24.38;;;0.80;99.90;;;;;;4995943;28;19920;-66
2022/11/19 01:53:57;;;;;;;56.72;26.00;;;0.80;99.90;;;;;;5005260;28;20034;-66
2022/11/19 01:56:23;;;;;;;51.50;23.58;;;0.80;99.90;;;;;;5003660;28;20083;-65
2022/11/19 01:58:55;;;;;;;49.53;24.95;;;0.80;99.90;;;;;;5001933;28;20057;-66
2022/11/19 02:01:21;;;;;;;54.83;24.98;;;0.80;99.90;;;;;;5005178;28;20033;-66
2022/11/19 02:03:48;;;;;;;47.75;23.58;;;0.70;99.90;;;;;;5004080;28;20022;-66
2022/11/19 02:06:13;;;;;;;48.97;24.45;;;0.70;99.90;;;;;;5002929;28;20034;-65
2022/11/19 02:08:47;;;;;;;48.63;24.35;;;0.70;99.90;;;;;;5004937;28;20539;-66
2022/11/19 02:11:24;;;;;;;44.33;22.13;;;0.70;99.90;;;;;;4999257;28;20611;-65
2022/11/19 02:13:56;;;;;;;45.88;23.20;;;0.80;99.90;;;;;;5001484;28;20057;-66
2022/11/19 02:16:43;;;;;;;47.05;22.48;;;0.80;99.90;;;;;;5000016;28;20490;-65
2022/11/19 02:19:19;;;;;;;49.40;24.20;;;0.80;99.90;;;;;;5001393;28;20037;-65
2022/11/19 02:21:58;;;;;;;50.88;23.00;;;0.80;99.90;;;;;;4997532;28;20424;-66
2022/11/19 02:24:39;;;;;;;45.50;24.02;;;0.80;99.90;;;;;;4998924;28;20041;-65
2022/11/19 02:27:42;;;;;;;44.10;23.08;;;0.80;99.90;;;;;;4999743;28;20023;-65
2022/11/19 02:30:12;;;;;;;50.97;23.55;;;0.80;99.90;;;;;;5000499;28;20554;-65
2022/11/19 02:32:55;;;;;;;46.08;22.98;;;0.80;99.90;;;;;;5005209;28;20505;-66
2022/11/19 02:35:36;;;;;;;43.72;22.63;;;0.80;99.90;;;;;;4999485;28;20022;-65
2022/11/19 02:38:14;;;;;;;;;;;0.80;99.90;;;;;;5002242;28;20421;-66
2022/11/19 02:40:48;;;;;;;47.30;23.38;;;0.80;99.90;;;;;;5005428;28;19917;-66
2022/11/19 02:43:20;;;;;;;43.53;21.45;;;0.70;99.90;;;;;;5003167;28;20073;-66
2022/11/19 02:45:57;;;;;;;38.80;21.10;;;0.70;99.90;;;;;;5000172;28;20042;-67
2022/11/19 02:48:29;;;;;;;48.83;23.52;;;0.70;99.90;;;;;;5001628;28;20382;-65
2022/11/19 02:50:58;;;;;;;43.25;24.05;;;0.70;99.90;;;;;;5001856;28;20120;-66
2022/11/19 02:53:24;;;;;;;46.28;21.75;;;0.70;99.90;;;;;;4998976;28;20038;-66
2022/11/19 03:04:31;;;;;;;54.92;23.85;;;0.70;99.90;;;;;;4997880;28;20513;-66
2022/11/19 03:07:07;;;;;;;55.78;24.35;;;0.70;99.90;;;;;;5000340;28;20046;-66
2022/11/19 03:09:40;;;;;;;57.10;25.00;;;0.70;99.90;;;;;;5008752;28;20496;-65
2022/11/19 03:12:31;;;;;;;62.55;27.25;;;0.70;99.90;;;;;;5015030;28;20702;-65
2022/11/19 03:18:07;;;;;;;72.22;26.60;;;0.70;99.90;;;;;;4999182;28;20080;-65
2022/11/19 03:20:42;;;;;;;66.50;27.00;;;0.70;99.90;;;;;;5001370;28;20400;-67
2022/11/19 03:23:21;;;;;;;61.45;24.98;;;0.70;99.90;;;;;;5001328;28;20026;-65
2022/11/19 03:25:58;;;;;;;58.05;25.55;;;0.70;99.90;;;;;;4998112;28;20042;-67
2022/11/19 03:28:29;;;;;;;69.13;27.45;;;0.70;99.90;;;;;;5000857;28;20022;-65
2022/11/19 03:30:57;;;;;;;66.50;25.40;;;0.70;99.90;;;;;;5000328;28;20021;-67
2022/11/19 03:33:27;;;;;;;55.47;23.88;;;0.70;99.90;;;;;;5004713;28;20026;-66
2022/11/19 03:35:59;;;;;;;62.55;26.13;;;0.60;99.90;;;;;;5002227;28;20029;-67
2022/11/19 03:38:32;;;;;;;57.33;24.92;;;0.60;99.90;;;;;;4999163;28;20052;-65
2022/11/19 03:41:02;;;;;;;59.22;25.50;;;0.60;99.90;;;;;;4997722;28;20112;-66
2022/11/19 03:43:32;;;;;;;60.97;26.23;;;0.60;99.90;;;;;;4999091;28;20032;-66
2022/11/19 03:46:01;;;;;;;69.03;26.08;;;0.50;99.90;;;;;;5001448;28;20037;-66
2022/11/19 03:48:30;;;;;;;72.50;28.10;;;0.50;99.90;;;;;;5011711;28;20402;-67
2022/11/19 03:51:07;;;;;;;64.55;26.95;;;0.50;99.90;;;;;;5001059;28;20042;-66
2022/11/19 03:53:33;;;;;;;61.92;25.25;;;0.50;99.90;;;;;;4998166;28;20050;-66
2022/11/19 03:56:02;;;;;;;63.80;27.10;;;0.50;99.90;;;;;;4997443;28;20118;-66
2022/11/19 03:58:28;;;;;;;64.55;27.10;;;0.60;99.90;;;;;;4998241;28;20397;-66
2022/11/19 04:00:54;;;;;;;62.72;24.80;;;0.50;99.90;;;;;;4998979;28;20118;-67
2022/11/19 04:03:20;;;;;;;57.88;24.65;;;0.50;99.90;;;;;;4994642;28;20081;-66
2022/11/19 04:05:46;;;;;;;64.95;23.27;;;0.60;99.90;;;;;;4997827;28;20034;-65
2022/11/19 04:08:12;;;;;;;57.97;23.45;;;0.60;99.90;;;;;;5000743;28;20026;-67
2022/11/19 04:10:37;;;;;;;56.28;24.42;;;0.60;99.90;;;;;;5001383;28;20026;-66
2022/11/19 04:13:03;;;;;;;52.90;23.60;;;0.60;99.90;;;;;;4996919;28;20452;-66
2022/11/19 04:15:29;;;;;;;52.35;22.98;;;0.50;99.90;;;;;;5000780;28;20033;-66
2022/11/19 04:17:54;;;;;;;46.38;20.58;;;0.40;99.90;;;;;;5000475;28;20076;-65
2022/11/19 04:20:20;;;;;;;42.88;20.17;;;0.40;99.90;;;;;;4999431;28;20061;-66
2022/11/19 04:22:46;;;;;;;40.08;20.42;;;0.40;99.90;;;;;;5001531;28;20041;-67
2022/11/19 04:25:11;;;;;;;45.58;22.25;;;0.40;99.90;;;;;;4997689;28;20053;-66
2022/11/19 04:27:37;;;;;;;49.22;21.65;;;0.30;99.90;;;;;;5002579;28;20393;-66
2022/11/19 04:30:03;;;;;;;47.45;21.63;;;0.30;99.90;;;;;;5001520;28;20022;-66
2022/11/19 04:32:29;;;;;;;44.72;20.38;;;0.30;99.90;;;;;;4996444;28;20607;-65
2022/11/19 04:34:55;;;;;;;48.45;21.63;;;0.30;99.90;;;;;;4997047;28;20117;-66
2022/11/19 04:37:20;;;;;;;45.72;20.50;;;0.30;99.90;;;;;;4999401;28;20059;-66
2022/11/19 04:39:46;;;;;;;52.17;22.20;;;0.30;99.90;;;;;;4999953;28;20021;-66
2022/11/19 04:42:11;;;;;;;44.97;22.17;;;0.30;99.90;;;;;;4997761;28;20477;-66
2022/11/19 04:44:37;;;;;;;42.38;21.02;;;0.20;99.90;;;;;;5001000;28;20076;-66
2022/11/19 04:47:03;;;;;;;45.42;20.55;;;0.20;99.90;;;;;;4999389;28;20517;-66
2022/11/19 04:49:28;;;;;;;39.00;20.42;;;0.20;99.90;;;;;;5001256;28;20046;-66
2022/11/19 04:51:54;;;;;;;41.45;20.95;;;0.20;99.90;;;;;;4997616;28;20030;-65
2022/11/19 04:54:19;;;;;;;47.85;22.70;;;0.20;99.90;;;;;;4999066;28;20438;-66
2022/11/19 04:56:45;;;;;;;40.85;20.50;;;0.20;99.90;;;;;;5000515;28;20030;-65
2022/11/19 04:59:11;;;;;;;42.67;20.50;;;0.20;99.90;;;;;;4998472;28;20489;-66
2022/11/19 05:01:36;;;;;;;44.45;18.92;;;0.20;99.90;;;;;;4996442;28;20026;-65
2022/11/19 05:04:02;;;;;;;40.92;20.23;;;0.20;99.90;;;;;;4996912;28;20057;-65
2022/11/19 05:06:28;;;;;;;48.55;21.65;;;0.20;99.90;;;;;;4995394;28;20061;-67
2022/11/19 05:08:53;;;;;;;44.47;21.23;;;0.20;99.90;;;;;;4998015;28;20049;-66
2022/11/19 05:11:19;;;;;;;42.42;20.10;;;0.20;99.90;;;;;;4999286;28;20571;-67
2022/11/19 05:13:44;;;;;;;38.65;20.40;;;0.20;99.90;;;;;;5000562;28;20037;-66
2022/11/19 05:16:10;;;;;;;40.85;19.80;;;0.20;99.90;;;;;;4995062;28;20041;-66
2022/11/19 05:18:36;;;;;;;41.58;19.88;;;0.20;99.90;;;;;;5004025;28;20428;-67
2022/11/19 05:21:01;;;;;;;40.45;19.75;;;0.20;99.90;;;;;;4996756;28;20035;-67
2022/11/19 05:23:27;;;;;;;36.90;20.08;;;0.20;99.90;;;;;;4995083;28;20509;-67
2022/11/19 05:25:52;;;;;;;46.05;21.20;;;0.20;99.90;;;;;;4995299;28;20038;-66
2022/11/19 05:28:18;;;;;;;45.05;20.10;;;0.20;99.90;;;;;;4997766;28;20026;-67
2022/11/19 05:30:44;;;;;;;43.45;20.60;;;0.20;99.90;;;;;;4997973;28;20023;-66
2022/11/19 05:33:09;;;;;;;39.85;19.15;;;0.20;99.90;;;;;;4996018;28;20033;-67
2022/11/19 05:35:35;;;;;;;41.88;21.02;;;0.20;99.90;;;;;;5000157;28;20493;-66
2022/11/19 05:38:00;;;;;;;44.85;20.23;;;0.20;99.90;;;;;;4997424;28;20022;-67
2022/11/19 05:40:26;;;;;;;44.78;20.25;;;0.20;99.90;;;;;;4995453;28;20129;-66
2022/11/19 05:42:52;;;;;;;44.08;21.38;;;0.20;99.90;;;;;;4994709;28;20030;-66
2022/11/19 05:45:17;;;;;;;43.92;21.58;;;0.20;99.90;;;;;;4997924;28;20041;-66
2022/11/19 05:47:43;;;;;;;43.22;20.92;;;0.20;99.90;;;;;;4993710;28;20034;-65
2022/11/19 05:50:09;;;;;;;42.97;20.98;;;0.20;99.90;;;;;;4998076;28;20039;-66
2022/11/19 05:52:35;;;;;;;49.30;22.27;;;0.20;99.90;;;;;;5001292;28;20089;-67
2022/11/19 05:55:01;;;;;;;50.65;21.95;;;0.20;99.90;;;;;;4997475;28;20026;-65
2022/11/19 05:57:27;;;;;;;51.08;22.42;;;0.20;99.90;;;;;;4996157;28;21037;-67
2022/11/19 05:59:53;;;;;;;45.45;21.55;;;0.20;99.90;;;;;;4995254;28;20062;-66
2022/11/19 06:02:18;;;;;;;45.58;22.50;;;0.20;99.90;;;;;;4996202;28;20136;-67
2022/11/19 06:04:44;;;;;;;42.22;20.17;;;0.20;99.90;;;;;;5000535;28;20052;-67
2022/11/19 06:07:09;;;;;;;52.08;21.92;;;0.20;99.90;;;;;;4998674;28;20525;-65
2022/11/19 06:09:35;;;;;;;45.45;22.23;;;0.20;99.90;;;;;;5000093;28;20022;-67
2022/11/19 06:12:01;;;;;;;42.63;19.38;;;0.20;99.90;;;;;;4995855;28;20456;-66
2022/11/19 06:14:26;;;;;;;42.28;20.08;;;0.20;99.90;;;;;;4994853;28;20497;-68
2022/11/19 06:16:55;;;;;;;53.00;23.13;;;0.20;99.90;;;;;;4991076;28;20056;-66
2022/11/19 06:19:22;;;;;;;50.63;24.00;;;0.10;99.90;;;;;;4995973;28;20612;-65
2022/11/19 06:21:48;;;;;;;44.38;21.42;;;0.10;99.90;;;;;;4997406;28;20034;-65
2022/11/19 06:24:15;;;;;;;52.25;22.75;;;0.10;99.90;;;;;;4991913;28;20030;-68
2022/11/19 06:26:41;;;;;;;44.72;21.00;;;0.10;99.90;;;;;;4997520;28;20487;-68
2022/11/19 06:29:08;;;;;;;49.97;22.60;;;0.10;99.90;;;;;;4998154;28;20050;-66
2022/11/19 06:31:34;;;;;;;48.17;23.02;;;0.10;99.90;;;;;;4995727;28;20088;-66
2022/11/19 06:34:00;;;;;;;52.15;23.27;;;0.10;99.90;;;;;;4998641;28;20026;-66
2022/11/19 06:36:26;;;;;;;59.88;24.13;;;0.10;99.90;;;;;;4998021;28;20038;-66
2022/11/19 06:38:51;;;;;;;57.92;23.50;;;0.20;99.90;;;;;;4997054;28;20029;-66
2022/11/19 06:41:18;;;;;;;54.30;23.92;;;0.20;99.90;;;;;;5001467;28;20634;-67
2022/11/19 06:43:43;;;;;;;62.65;24.40;;;0.20;99.90;;;;;;4999162;28;20069;-66
2022/11/19 06:46:10;;;;;;;56.22;23.40;;;0.20;99.90;;;;;;4996509;28;20129;-68
2022/11/19 06:48:36;;;;;;;57.58;23.67;;;0.20;99.90;;;;;;4996994;28;20076;-66
2022/11/19 06:51:02;;;;;;;49.40;21.83;;;0.20;99.90;;;;;;5002520;28;20026;-66
2022/11/19 06:53:28;;;;;;;52.75;22.50;;;0.10;99.90;;;;;;5000405;28;20018;-66
2022/11/19 06:55:59;;;;;;;53.35;22.70;;;0.10;99.90;;;;;;4997697;28;20109;-65
2022/11/19 06:58:25;;;;;;;55.08;23.13;;;0.20;99.90;;;;;;4995714;28;20034;-66
2022/11/19 07:00:51;;;;;;;51.25;22.48;;;0.20;99.90;;;;;;5000761;28;20061;-66
2022/11/19 07:03:17;;;;;;;57.58;23.30;;;0.20;99.90;;;;;;5002550;28;20058;-66
2022/11/19 07:05:42;;;;;;;57.00;22.80;;;0.20;99.90;;;;;;4995564;28;20081;-65
2022/11/19 07:08:08;;;;;;;52.72;21.10;;;0.20;99.90;;;;;;5000565;28;20516;-66
2022/11/19 07:10:34;;;;;;;47.20;19.40;;;0.20;99.90;;;;;;5003066;28;20037;-68
2022/11/19 07:13:00;;;;;;;50.70;20.95;;;0.10;99.90;;;;;;5000341;28;20026;-67
2022/11/19 07:15:26;;;;;;;43.22;19.80;;;0.20;99.90;;;;;;5000771;28;20101;-65
2022/11/19 07:17:52;;;;;;;45.35;20.13;;;0.20;99.90;;;;;;4996995;28;20041;-65
2022/11/19 07:20:17;;;;;;;49.15;20.48;;;0.20;99.90;;;;;;4995470;28;20463;-65
2022/11/19 07:22:43;;;;;;;48.25;21.85;;;0.20;99.90;;;;;;5001488;28;20397;-65
2022/11/19 07:25:12;;;;;;;54.42;21.70;;;0.20;99.90;;;;;;4995884;28;20355;-66
2022/11/19 07:27:45;;;;;;;50.78;21.58;;;0.20;99.90;;;;;;4998779;28;20555;-65
2022/11/19 07:30:11;;;;;;;49.20;20.27;;;0.20;99.90;;;;;;4998725;28;20025;-66
2022/11/19 07:32:37;;;;;;;49.40;21.58;;;0.30;99.90;;;;;;4991376;28;20027;-65
2022/11/19 07:35:02;;;;;;;49.38;21.48;;;0.30;99.90;;;;;;5003706;28;20071;-67
2022/11/19 07:37:28;;;;;;;49.65;22.40;;;0.30;99.90;;;;;;4999495;28;20030;-67
2022/11/19 07:39:53;;;;;;;39.75;21.83;;;0.30;99.90;;;;;;5000982;28;20038;-65
2022/11/19 07:45:04;;;;;;;46.92;20.23;;;0.30;99.90;;;;;;5002038;28;20460;-68
2022/11/19 07:47:29;;;;;;;45.65;22.38;;;0.30;99.90;;;;;;4998601;28;20046;-66
2022/11/19 07:49:55;;;;;;;47.90;21.27;;;0.30;99.90;;;;;;4998025;28;20037;-66
2022/11/19 07:52:20;;;;;;;43.50;21.75;;;0.30;99.90;;;;;;4996222;28;20113;-68
2022/11/19 07:54:46;;;;;;;47.88;21.45;;;0.30;99.90;;;;;;4997467;28;20033;-66
2022/11/19 07:57:12;;;;;;;44.28;20.13;;;0.30;99.90;;;;;;4999211;28;20031;-66
2022/11/19 07:59:37;;;;;;;42.05;20.65;;;0.40;99.90;;;;;;4999206;28;20033;-65
2022/11/19 08:02:03;;;;;;;51.40;22.38;;;0.40;99.90;;;;;;4999522;28;20030;-66
2022/11/19 08:04:29;;;;;;;48.97;20.77;;;0.40;99.90;;;;;;4993648;28;20045;-68
2022/11/19 08:06:54;;;;;;;51.05;22.30;;;0.50;99.90;;;;;;5000842;28;20034;-65
2022/11/19 08:09:20;;;;;;;42.25;20.75;;;0.50;99.90;;;;;;4993643;28;20681;-66
2022/11/19 08:11:46;;;;;;;37.50;19.05;;;0.50;99.90;;;;;;5000194;28;20757;-66
2022/11/19 08:14:12;;;;;;;38.33;20.02;;;0.60;99.90;;;;;;4997218;28;20041;-66
2022/11/19 08:19:22;;;;;;;36.63;18.30;;;0.60;99.90;;;;;;4998799;28;20109;-68
2022/11/19 08:21:48;;;;;;;39.33;19.17;;;0.70;99.90;;;;;;4998876;28;20109;-67
2022/11/19 08:24:16;;;;;;;38.60;18.17;;;0.60;99.90;;;;;;4995223;28;20027;-66
2022/11/19 08:26:42;;;;;;;32.03;17.48;;;0.70;99.90;;;;;;4997249;28;20088;-68
2022/11/19 08:29:08;;;;;;;31.90;17.38;;;0.70;99.90;;;;;;4997227;28;20057;-68
2022/11/19 08:31:33;;;;;;;34.42;17.83;;;0.70;99.90;;;;;;4993484;28;20054;-68
2022/11/19 08:34:02;;;;;;;35.17;17.92;;;0.80;99.90;;;;;;4995581;28;21013;-68
2022/11/19 08:36:28;;;;;;;40.47;19.20;;;0.80;99.90;;;;;;4974568;28;20074;-67
2022/11/19 08:38:57;;;;;;;34.70;17.48;;;0.80;99.90;;;;;;4972732;28;20057;-68
2022/11/19 08:44:08;;;;;;;31.20;17.50;;;0.90;99.90;;;;;;4975208;28;20445;-68
2022/11/19 08:46:33;;;;;;;32.78;18.20;;;0.90;99.90;;;;;;4979742;28;20039;-66
2022/11/19 08:48:59;;;;;;;29.70;17.33;;;0.90;99.90;;;;;;4981424;28;20068;-66
2022/11/19 08:51:25;;;;;;;29.58;17.27;;;0.90;99.90;;;;;;4979466;28;20105;-66
2022/11/19 08:53:51;;;;;;;31.80;17.80;;;1.00;99.90;;;;;;4986396;28;20041;-66
2022/11/19 08:56:17;;;;;;;29.45;16.77;;;1.00;99.90;;;;;;4976836;28;20039;-66
2022/11/19 08:58:43;;;;;;;30.10;16.55;;;1.00;99.90;;;;;;4974379;28;20041;-65
2022/11/19 09:01:10;;;;;;;33.90;19.30;;;1.00;99.90;;;;;;4999559;28;20109;-66
2022/11/19 09:03:36;;;;;;;31.25;19.80;;;1.00;99.90;;;;;;4998656;28;20072;-68
2022/11/19 09:06:02;;;;;;;28.90;18.00;;;1.00;99.90;;;;;;4997706;28;21767;-66
2022/11/19 09:08:28;;;;;;;25.05;16.98;;;1.00;99.90;;;;;;4995827;28;20723;-65
2022/11/19 09:10:54;;;;;;;34.97;19.73;;;1.00;99.90;;;;;;4974776;28;20049;-65
2022/11/19 09:13:20;;;;;;;28.77;18.33;;;1.00;99.90;;;;;;4999089;28;20029;-65
2022/11/19 09:15:52;;;;;;;31.60;18.55;;;1.00;99.90;;;;;;5011460;28;20065;-66
2022/11/19 09:18:17;;;;;;;30.48;18.70;;;1.00;99.90;;;;;;5000029;28;20065;-65
2022/11/19 09:20:43;;;;;;;26.25;18.17;;;1.00;99.90;;;;;;5005055;28;20481;-65
2022/11/19 09:23:09;;;;;;;28.08;18.60;;;1.00;99.90;;;;;;5000892;28;20018;-67
2022/11/19 09:25:34;;;;;;;34.97;19.48;;;1.10;99.90;;;;;;5000768;28;20037;-67
2022/11/19 09:28:00;;;;;;;32.15;19.17;;;1.00;99.90;;;;;;4999242;28;20038;-65
2022/11/19 09:30:26;;;;;;;32.15;19.55;;;1.10;99.90;;;;;;5002057;28;20200;-66
2022/11/19 09:32:51;;;;;;;28.30;19.25;;;1.10;99.90;;;;;;5003958;28;20031;-66
2022/11/19 09:35:17;;;;;;;27.50;17.40;;;1.20;99.90;;;;;;4995694;28;20041;-66
2022/11/19 09:37:43;;;;;;;32.28;19.13;;;1.20;99.90;;;;;;4999674;28;20049;-66
2022/11/19 09:40:16;;;;;;;30.38;19.38;;;1.20;99.90;;;;;;4997862;28;20490;-67
2022/11/19 09:42:51;;;;;;;29.05;18.42;;;1.20;99.90;;;;;;4995135;28;20027;-68
2022/11/19 09:45:19;;;;;;;30.27;20.15;;;1.20;99.90;;;;;;4999903;28;20030;-67
2022/11/19 09:48:06;;;;;;;30.02;18.90;;;1.20;99.90;;;;;;4998441;28;20034;-66
2022/11/19 09:50:44;;;;;;;33.00;19.65;;;1.20;99.90;;;;;;5000829;28;20043;-65
2022/11/19 09:53:18;;;;;;;26.17;16.60;;;1.30;99.90;;;;;;4998430;28;20429;-65
2022/11/19 09:55:46;;;;;;;32.63;20.23;;;1.30;99.90;;;;;;4998428;28;20576;-66
2022/11/19 09:58:24;;;;;;;37.50;19.85;;;1.30;99.90;;;;;;4999266;28;20033;-67
2022/11/19 10:00:49;;;;;;;30.55;17.60;;;1.30;99.90;;;;;;4994722;28;20556;-69
2022/11/19 10:03:19;;;;;;;32.25;18.70;;;1.30;99.90;;;;;;4992861;28;20034;-67
2022/11/19 10:05:44;;;;;;;31.05;19.98;;;1.40;99.90;;;;;;4995069;28;20061;-65
2022/11/19 10:08:25;;;;;;;33.80;19.63;;;1.40;99.90;;;;;;4995846;28;20448;-65
2022/11/19 10:11:14;;;;;;;33.65;20.50;;;1.50;99.90;;;;;;4997186;28;20450;-65
2022/11/19 10:14:02;;;;;;;31.85;18.90;;;1.60;99.90;;;;;;5012534;28;20099;-67
2022/11/19 10:16:31;;;;;;;29.95;18.70;;;1.60;99.90;;;;;;5000004;28;20033;-69
2022/11/19 10:19:35;;;;;;;34.92;19.52;;;1.60;99.90;;;;;;5004021;28;20482;-66
2022/11/19 10:22:22;;;;;;;31.77;20.33;;;1.60;99.90;;;;;;5000701;28;20045;-67
2022/11/19 10:25:04;;;;;;;30.23;18.20;;;1.60;99.90;;;;;;5001540;28;20072;-67
2022/11/19 10:27:44;;;;;;;27.98;17.48;;;1.60;99.90;;;;;;5003644;28;20041;-67
2022/11/19 10:30:30;;;;;;;37.23;19.27;;;1.60;99.90;;;;;;5002374;28;20026;-69
2022/11/19 10:33:08;;;;;;;29.75;19.10;;;1.70;99.90;;;;;;5001547;28;20142;-67
2022/11/19 10:35:51;;;;;;;30.48;18.92;;;1.80;99.90;;;;;;5016945;28;20027;-69
2022/11/19 10:38:54;;;;;;;24.75;17.52;;;1.90;99.90;;;;;;5001741;28;20034;-69
2022/11/19 10:41:34;;;;;;;30.90;18.02;;;2.00;99.90;;;;;;5000272;28;20125;-67
2022/11/19 10:44:36;;;;;;;26.00;16.55;;;2.10;99.90;;;;;;4999484;28;20030;-68
2022/11/19 10:47:16;;;;;;;30.13;17.98;;;2.20;99.90;;;;;;5001195;28;20041;-69
2022/11/19 10:49:42;;;;;;;29.77;17.65;;;2.30;99.90;;;;;;5006350;28;20030;-68
2022/11/19 10:52:30;;;;;;;28.20;18.20;;;2.30;99.90;;;;;;5004579;28;20022;-68
2022/11/19 10:55:02;;;;;;;33.15;18.92;;;2.30;99.90;;;;;;4995980;28;20092;-67
2022/11/19 10:57:30;;;;;;;28.90;17.75;;;2.30;99.90;;;;;;5001761;28;20042;-68
2022/11/19 10:59:56;;;;;;;30.20;18.33;;;2.30;99.90;;;;;;4997960;28;20034;-68
2022/11/19 11:02:46;;;;;;;27.45;18.02;;;2.30;99.90;;;;;;4999558;28;20068;-68
2022/11/19 11:05:16;;;;;;;28.58;17.42;;;2.20;99.90;;;;;;4998604;28;20041;-68
2022/11/19 11:07:44;;;;;;;28.23;17.98;;;2.10;99.90;;;;;;5000532;28;20033;-68
2022/11/19 11:10:25;;;;;;;29.00;17.45;;;2.10;99.90;;;;;;4997932;28;20026;-67
2022/11/19 11:15:44;;;;;;;30.25;18.10;;;2.00;99.90;;;;;;5003373;28;20100;-68
2022/11/19 11:18:11;;;;;;;26.65;17.58;;;2.00;99.90;;;;;;5004366;28;20040;-68
2022/11/19 11:20:44;;;;;;;31.60;18.67;;;2.00;99.90;;;;;;4997746;28;20042;-70
2022/11/19 11:23:14;;;;;;;25.95;16.33;;;2.00;99.90;;;;;;5001302;28;20056;-69
2022/11/19 11:25:49;;;;;;;24.42;16.42;;;1.90;99.90;;;;;;5000646;28;20042;-68
2022/11/19 11:28:18;;;;;;;28.13;17.25;;;1.90;99.90;;;;;;4999644;28;20045;-68
2022/11/19 11:31:03;;;;;;;26.63;16.95;;;1.90;99.90;;;;;;5002357;28;20030;-69
2022/11/19 11:33:37;;;;;;;26.65;17.00;;;2.00;99.90;;;;;;4988904;28;20065;-69
2022/11/19 11:36:07;;;;;;;27.92;18.52;;;2.00;99.90;;;;;;5000982;28;20038;-69
2022/11/19 11:38:41;;;;;;;33.40;17.98;;;2.00;99.90;;;;;;5005285;28;20038;-68
2022/11/19 11:41:10;;;;;;;26.77;18.30;;;2.00;99.90;;;;;;4995838;28;20034;-68
2022/11/19 11:43:40;;;;;;;25.27;16.70;;;2.00;99.90;;;;;;4999639;28;20034;-71
2022/11/19 11:46:08;;;;;;;33.88;17.80;;;2.00;99.90;;;;;;5002184;28;20034;-70
2022/11/19 11:48:42;;;;;;;31.38;16.58;;;2.00;99.90;;;;;;5005454;28;20137;-70
2022/11/19 11:51:26;;;;;;;24.85;16.85;;;2.00;99.90;;;;;;4998709;28;20420;-71
2022/11/19 11:54:18;;;;;;;26.90;17.02;;;2.00;99.90;;;;;;5001734;28;20092;-68
2022/11/19 11:56:44;;;;;;;28.42;17.15;;;2.00;99.90;;;;;;4999218;28;20034;-69
2022/11/19 11:59:14;;;;;;;25.13;16.90;;;2.10;99.90;;;;;;4999734;28;20037;-68
2022/11/19 12:01:41;;;;;;;28.53;18.13;;;2.10;99.90;;;;;;5002396;28;20092;-70
2022/11/19 12:04:11;;;;;;;24.40;15.27;;;2.10;99.90;;;;;;5000715;28;20524;-69
2022/11/19 12:07:13;;;;;;;31.43;18.63;;;2.10;99.90;;;;;;5003271;28;20076;-68
2022/11/19 12:10:02;;;;;;;33.72;18.20;;;2.10;99.90;;;;;;4970545;28;20038;-71
2022/11/19 12:12:37;;;;;;;28.98;16.85;;;2.10;99.90;;;;;;4981216;28;20442;-69
2022/11/19 12:15:09;;;;;;;26.60;17.38;;;2.10;99.90;;;;;;4977033;28;20157;-69
2022/11/19 12:17:59;;;;;;;32.13;18.85;;;2.20;99.90;;;;;;4978221;28;20030;-70
2022/11/19 12:20:46;;;;;;;26.65;16.50;;;2.20;99.90;;;;;;4979440;28;20093;-69
2022/11/19 12:23:34;;;;;;;25.15;16.27;;;2.10;99.90;;;;;;4981099;28;20023;-68
2022/11/19 12:26:24;;;;;;;26.08;16.63;;;2.20;99.90;;;;;;4982064;28;20093;-68
2022/11/19 12:29:28;;;;;;;27.45;16.80;;;2.20;99.90;;;;;;4975970;28;20054;-69
2022/11/19 12:32:02;;;;;;;33.10;16.65;;;2.20;99.90;;;;;;4978121;28;20096;-69
2022/11/19 12:34:56;;;;;;;29.00;16.73;;;2.00;99.90;;;;;;4973397;28;20033;-69
2022/11/19 12:38:02;;;;;;;25.75;16.80;;;1.90;99.90;;;;;;4978347;28;20054;-68
2022/11/19 12:40:58;;;;;;;27.52;17.35;;;1.90;99.90;;;;;;4973913;28;20027;-69
2022/11/19 12:43:42;;;;;;;28.45;17.98;;;1.80;99.90;;;;;;4983491;28;20049;-66
2022/11/19 12:46:29;;;;;;;25.05;15.77;;;1.70;99.90;;;;;;4978298;28;20054;-66
2022/11/19 12:49:13;;;;;;;27.75;16.65;;;1.70;99.90;;;;;;4980367;28;20414;-66
2022/11/19 12:51:42;;;;;;;27.13;16.58;;;1.60;99.90;;;;;;4974707;28;20042;-71
2022/11/19 12:54:29;;;;;;;31.50;18.60;;;1.50;99.90;;;;;;4977969;28;20382;-67
2022/11/19 12:57:00;;;;;;;28.38;17.92;;;1.40;99.90;;;;;;4983009;28;20038;-67
2022/11/19 12:59:32;;;;;;;31.20;18.27;;;1.40;99.90;;;;;;4977819;28;20031;-67
2022/11/19 13:02:01;;;;;;;30.23;18.75;;;1.30;99.90;;;;;;4973880;28;20118;-70
2022/11/19 13:04:41;;;;;;;30.95;19.25;;;1.40;99.90;;;;;;4982334;28;20030;-68
2022/11/19 13:07:06;;;;;;;30.58;19.45;;;1.50;99.90;;;;;;4977421;28;20520;-68
2022/11/19 13:09:44;;;;;;;35.63;19.77;;;1.50;99.90;;;;;;4975664;28;20027;-68
2022/11/19 13:12:15;;;;;;;29.50;18.40;;;1.50;99.90;;;;;;4975682;28;20033;-68
2022/11/19 13:14:43;;;;;;;35.70;19.48;;;1.50;99.90;;;;;;4976427;28;20070;-68
2022/11/19 13:17:17;;;;;;;27.95;17.50;;;1.50;99.90;;;;;;4977415;28;20430;-66